sensor_id;sensor_type;location;lat;lon;timestamp;P1;durP1;ratioP1;P2;durP2;ratioP2
56271;SDS011;42177;48.914;18.160;2022-11-15T00:00:03;42.3;;;28.3;;
56271;SDS011;42177;48.914;18.160;2022-11-15T00:05:03;42.3;;;28.3;;
56271;SDS011;42177;48.914;18.160;2022-11-15T00:10:03;32.9;;;23.4;;
56271;SDS011;42177;48.914;18.160;2022-11-15T00:15:03;32.9;;;23.4;;
56271;SDS011;42177;48.914;18.160;2022-11-15T00:20:03;31.4;;;22.8;;
56271;SDS011;42177;48.914;18.160;2022-11-15T00:25:03;31.4;;;22.8;;
56271;SDS011;42177;48.914;18.160;2022-11-15T00:30:03;32.5;;;22;;
56271;SDS011;42177;48.914;18.160;2022-11-15T00:35:03;32.5;;;22;;
56271;SDS011;42177;48.914;18.160;2022-11-15T00:40:03;37.8;;;26.2;;
56271;SDS011;42177;48.914;18.160;2022-11-15T00:45:03;37.8;;;26.2;;
56271;SDS011;42177;48.914;18.160;2022-11-15T00:50:03;35.3;;;23.5;;
56271;SDS011;42177;48.914;18.160;2022-11-15T00:55:03;35.3;;;23.5;;
56271;SDS011;42177;48.914;18.160;2022-11-15T01:00:03;32.2;;;23.2;;
56271;SDS011;42177;48.914;18.160;2022-11-15T01:05:03;32.2;;;23.2;;
56271;SDS011;42177;48.914;18.160;2022-11-15T01:10:03;32.2;;;22;;
56271;SDS011;42177;48.914;18.160;2022-11-15T01:15:04;32.2;;;22;;
56271;SDS011;42177;48.914;18.160;2022-11-15T01:20:03;32.1;;;22.9;;
56271;SDS011;42177;48.914;18.160;2022-11-15T01:25:03;32.1;;;22.9;;
56271;SDS011;42177;48.914;18.160;2022-11-15T01:30:04;37.1;;;25.6;;
56271;SDS011;42177;48.914;18.160;2022-11-15T01:35:03;37.1;;;25.6;;
56271;SDS011;42177;48.914;18.160;2022-11-15T01:40:03;32.8;;;23.6;;
56271;SDS011;42177;48.914;18.160;2022-11-15T01:45:03;32.8;;;23.6;;
56271;SDS011;42177;48.914;18.160;2022-11-15T01:50:04;36.9;;;24.8;;
56271;SDS011;42177;48.914;18.160;2022-11-15T01:55:04;36.9;;;24.8;;
56271;SDS011;42177;48.914;18.160;2022-11-15T02:00:04;39.9;;;25.2;;
56271;SDS011;42177;48.914;18.160;2022-11-15T02:05:03;39.9;;;25.2;;
56271;SDS011;42177;48.914;18.160;2022-11-15T02:10:05;39.8;;;24.5;;
56271;SDS011;42177;48.914;18.160;2022-11-15T02:15:04;39.8;;;24.5;;
56271;SDS011;42177;48.914;18.160;2022-11-15T02:20:09;44;;;25.8;;
56271;SDS011;42177;48.914;18.160;2022-11-15T02:25:07;44;;;25.8;;
56271;SDS011;42177;48.914;18.160;2022-11-15T02:35:05;213.1;;;37.7;;
56271;SDS011;42177;48.914;18.160;2022-11-15T02:40:05;70.9;;;29.5;;
56271;SDS011;42177;48.914;18.160;2022-11-15T02:45:04;70.9;;;29.5;;
56271;SDS011;42177;48.914;18.160;2022-11-15T02:50:05;63.1;;;27.4;;
56271;SDS011;42177;48.914;18.160;2022-11-15T02:55:03;63.1;;;27.4;;
56271;SDS011;42177;48.914;18.160;2022-11-15T03:00:05;51.2;;;26.6;;
56271;SDS011;42177;48.914;18.160;2022-11-15T03:05:04;51.2;;;26.6;;
56271;SDS011;42177;48.914;18.160;2022-11-15T03:10:05;59.9;;;26.5;;
56271;SDS011;42177;48.914;18.160;2022-11-15T03:15:05;59.9;;;26.5;;
56271;SDS011;42177;48.914;18.160;2022-11-15T03:20:04;57.5;;;26;;
56271;SDS011;42177;48.914;18.160;2022-11-15T03:25:04;57.5;;;26;;
56271;SDS011;42177;48.914;18.160;2022-11-15T03:30:05;32.8;;;24.2;;
56271;SDS011;42177;48.914;18.160;2022-11-15T03:35:05;32.8;;;24.2;;
56271;SDS011;42177;48.914;18.160;2022-11-15T03:40:03;34.4;;;23.8;;
56271;SDS011;42177;48.914;18.160;2022-11-15T03:45:05;34.4;;;23.8;;
56271;SDS011;42177;48.914;18.160;2022-11-15T03:50:05;32.6;;;24;;
56271;SDS011;42177;48.914;18.160;2022-11-15T03:55:05;32.6;;;24;;
56271;SDS011;42177;48.914;18.160;2022-11-15T04:00:03;34.4;;;24.8;;
56271;SDS011;42177;48.914;18.160;2022-11-15T04:05:03;34.4;;;24.8;;
56271;SDS011;42177;48.914;18.160;2022-11-15T04:10:04;32.7;;;25.5;;
56271;SDS011;42177;48.914;18.160;2022-11-15T04:15:04;32.7;;;25.5;;
56271;SDS011;42177;48.914;18.160;2022-11-15T04:20:03;30.4;;;23.4;;
56271;SDS011;42177;48.914;18.160;2022-11-15T04:25:03;30.4;;;23.4;;
56271;SDS011;42177;48.914;18.160;2022-11-15T04:30:04;28.5;;;21.9;;
56271;SDS011;42177;48.914;18.160;2022-11-15T04:35:04;28.5;;;21.9;;
56271;SDS011;42177;48.914;18.160;2022-11-15T04:40:03;28.3;;;21;;
56271;SDS011;42177;48.914;18.160;2022-11-15T04:45:03;28.3;;;21;;
56271;SDS011;42177;48.914;18.160;2022-11-15T04:50:04;27.2;;;21.5;;
56271;SDS011;42177;48.914;18.160;2022-11-15T04:55:03;27.2;;;21.5;;
56271;SDS011;42177;48.914;18.160;2022-11-15T05:00:04;29.5;;;22.5;;
56271;SDS011;42177;48.914;18.160;2022-11-15T05:05:03;29.5;;;22.5;;
56271;SDS011;42177;48.914;18.160;2022-11-15T05:10:03;30;;;23.3;;
56271;SDS011;42177;48.914;18.160;2022-11-15T05:15:03;30;;;23.3;;
56271;SDS011;42177;48.914;18.160;2022-11-15T05:20:03;28.8;;;21.9;;
56271;SDS011;42177;48.914;18.160;2022-11-15T05:25:03;28.8;;;21.9;;
56271;SDS011;42177;48.914;18.160;2022-11-15T05:30:03;26.4;;;21.1;;
56271;SDS011;42177;48.914;18.160;2022-11-15T05:35:03;26.4;;;21.1;;
56271;SDS011;42177;48.914;18.160;2022-11-15T05:40:03;27.7;;;20.4;;
56271;SDS011;42177;48.914;18.160;2022-11-15T05:45:04;27.7;;;20.4;;
56271;SDS011;42177;48.914;18.160;2022-11-15T05:50:04;27.9;;;21.4;;
56271;SDS011;42177;48.914;18.160;2022-11-15T05:55:04;27.9;;;21.4;;
56271;SDS011;42177;48.914;18.160;2022-11-15T06:00:04;29.9;;;22.7;;
56271;SDS011;42177;48.914;18.160;2022-11-15T06:05:03;29.9;;;22.7;;
56271;SDS011;42177;48.914;18.160;2022-11-15T06:10:04;26.9;;;21;;
56271;SDS011;42177;48.914;18.160;2022-11-15T06:15:03;26.9;;;21;;
56271;SDS011;42177;48.914;18.160;2022-11-15T06:20:03;27.2;;;20.6;;
56271;SDS011;42177;48.914;18.160;2022-11-15T06:25:03;27.2;;;20.6;;
56271;SDS011;42177;48.914;18.160;2022-11-15T06:30:04;24.9;;;20.3;;
56271;SDS011;42177;48.914;18.160;2022-11-15T06:35:03;24.9;;;20.3;;
56271;SDS011;42177;48.914;18.160;2022-11-15T06:40:03;31;;;23.7;;
56271;SDS011;42177;48.914;18.160;2022-11-15T06:45:03;31;;;23.7;;
56271;SDS011;42177;48.914;18.160;2022-11-15T06:50:03;28.7;;;22.1;;
56271;SDS011;42177;48.914;18.160;2022-11-15T06:55:03;28.7;;;22.1;;
56271;SDS011;42177;48.914;18.160;2022-11-15T07:00:03;26.2;;;20.7;;
56271;SDS011;42177;48.914;18.160;2022-11-15T07:05:03;26.2;;;20.7;;
56271;SDS011;42177;48.914;18.160;2022-11-15T07:10:04;26.8;;;19.9;;
56271;SDS011;42177;48.914;18.160;2022-11-15T07:15:03;26.8;;;19.9;;
56271;SDS011;42177;48.914;18.160;2022-11-15T07:20:03;28;;;20.5;;
56271;SDS011;42177;48.914;18.160;2022-11-15T07:25:03;28;;;20.5;;
56271;SDS011;42177;48.914;18.160;2022-11-15T07:30:04;23.9;;;19.3;;
56271;SDS011;42177;48.914;18.160;2022-11-15T07:35:03;23.9;;;19.3;;
56271;SDS011;42177;48.914;18.160;2022-11-15T07:40:03;27.5;;;21.6;;
56271;SDS011;42177;48.914;18.160;2022-11-15T07:45:03;27.5;;;21.6;;
56271;SDS011;42177;48.914;18.160;2022-11-15T07:50:03;33.7;;;23.4;;
56271;SDS011;42177;48.914;18.160;2022-11-15T07:55:03;33.7;;;23.4;;
56271;SDS011;42177;48.914;18.160;2022-11-15T08:00:04;57;;;35.9;;
56271;SDS011;42177;48.914;18.160;2022-11-15T08:05:03;57;;;35.9;;
56271;SDS011;42177;48.914;18.160;2022-11-15T08:10:04;35.9;;;25.5;;
56271;SDS011;42177;48.914;18.160;2022-11-15T08:15:03;35.9;;;25.5;;
56271;SDS011;42177;48.914;18.160;2022-11-15T08:20:03;29.8;;;22;;
56271;SDS011;42177;48.914;18.160;2022-11-15T08:25:04;29.8;;;22;;
56271;SDS011;42177;48.914;18.160;2022-11-15T08:30:04;26.8;;;20.4;;
56271;SDS011;42177;48.914;18.160;2022-11-15T08:35:03;26.8;;;20.4;;
56271;SDS011;42177;48.914;18.160;2022-11-15T08:40:03;30.8;;;22.1;;
56271;SDS011;42177;48.914;18.160;2022-11-15T08:45:03;30.8;;;22.1;;
56271;SDS011;42177;48.914;18.160;2022-11-15T08:50:03;30.2;;;22.5;;
56271;SDS011;42177;48.914;18.160;2022-11-15T08:55:03;30.2;;;22.5;;
56271;SDS011;42177;48.914;18.160;2022-11-15T09:00:03;29;;;22.6;;
56271;SDS011;42177;48.914;18.160;2022-11-15T09:05:03;29;;;22.6;;
56271;SDS011;42177;48.914;18.160;2022-11-15T09:10:03;29.2;;;22.5;;
56271;SDS011;42177;48.914;18.160;2022-11-15T09:15:03;29.2;;;22.5;;
56271;SDS011;42177;48.914;18.160;2022-11-15T09:20:03;29.2;;;22.6;;
56271;SDS011;42177;48.914;18.160;2022-11-15T09:25:03;29.2;;;22.6;;
56271;SDS011;42177;48.914;18.160;2022-11-15T09:30:04;27.4;;;21.7;;
56271;SDS011;42177;48.914;18.160;2022-11-15T09:35:03;27.4;;;21.7;;
56271;SDS011;42177;48.914;18.160;2022-11-15T09:40:03;27.9;;;21;;
56271;SDS011;42177;48.914;18.160;2022-11-15T09:45:06;27.9;;;21;;
56271;SDS011;42177;48.914;18.160;2022-11-15T09:50:07;26.8;;;21.1;;
56271;SDS011;42177;48.914;18.160;2022-11-15T09:55:03;26.8;;;21.1;;
56271;SDS011;42177;48.914;18.160;2022-11-15T10:00:07;32;;;23.2;;
56271;SDS011;42177;48.914;18.160;2022-11-15T10:05:03;32;;;23.2;;
56271;SDS011;42177;48.914;18.160;2022-11-15T10:10:04;31.4;;;22.7;;
56271;SDS011;42177;48.914;18.160;2022-11-15T10:15:04;31.4;;;22.7;;
56271;SDS011;42177;48.914;18.160;2022-11-15T10:20:06;30;;;21.9;;
56271;SDS011;42177;48.914;18.160;2022-11-15T10:25:10;30;;;21.9;;
56271;SDS011;42177;48.914;18.160;2022-11-15T10:30:03;30.8;;;22.2;;
56271;SDS011;42177;48.914;18.160;2022-11-15T10:35:15;30.8;;;22.2;;
56271;SDS011;42177;48.914;18.160;2022-11-15T10:40:04;27.5;;;22.1;;
56271;SDS011;42177;48.914;18.160;2022-11-15T10:45:08;27.5;;;22.1;;
56271;SDS011;42177;48.914;18.160;2022-11-15T10:50:05;31.8;;;23.3;;
56271;SDS011;42177;48.914;18.160;2022-11-15T10:55:06;31.8;;;23.3;;
56271;SDS011;42177;48.914;18.160;2022-11-15T11:00:04;31.2;;;22.4;;
56271;SDS011;42177;48.914;18.160;2022-11-15T11:05:05;31.2;;;22.4;;
56271;SDS011;42177;48.914;18.160;2022-11-15T11:10:05;38.3;;;26.5;;
56271;SDS011;42177;48.914;18.160;2022-11-15T11:15:09;38.3;;;26.5;;
56271;SDS011;42177;48.914;18.160;2022-11-15T11:20:06;40.1;;;27.2;;
56271;SDS011;42177;48.914;18.160;2022-11-15T11:25:04;40.1;;;27.2;;
56271;SDS011;42177;48.914;18.160;2022-11-15T11:30:06;38.2;;;26;;
56271;SDS011;42177;48.914;18.160;2022-11-15T11:35:05;38.2;;;26;;
56271;SDS011;42177;48.914;18.160;2022-11-15T11:40:07;38.9;;;26;;
56271;SDS011;42177;48.914;18.160;2022-11-15T11:45:05;38.9;;;26;;
56271;SDS011;42177;48.914;18.160;2022-11-15T11:50:05;35.7;;;26;;
56271;SDS011;42177;48.914;18.160;2022-11-15T11:55:05;35.7;;;26;;
56271;SDS011;42177;48.914;18.160;2022-11-15T12:00:04;38.2;;;26.2;;
56271;SDS011;42177;48.914;18.160;2022-11-15T12:05:07;38.2;;;26.2;;
56271;SDS011;42177;48.914;18.160;2022-11-15T12:10:04;39.5;;;25.5;;
56271;SDS011;42177;48.914;18.160;2022-11-15T12:15:04;39.5;;;25.5;;
56271;SDS011;42177;48.914;18.160;2022-11-15T12:20:04;41.2;;;27.2;;
56271;SDS011;42177;48.914;18.160;2022-11-15T12:25:04;41.2;;;27.2;;
56271;SDS011;42177;48.914;18.160;2022-11-15T12:30:04;40.1;;;27.1;;
56271;SDS011;42177;48.914;18.160;2022-11-15T12:35:04;40.1;;;27.1;;
56271;SDS011;42177;48.914;18.160;2022-11-15T12:40:05;41.5;;;27.7;;
56271;SDS011;42177;48.914;18.160;2022-11-15T12:45:22;41.5;;;27.7;;
56271;SDS011;42177;48.914;18.160;2022-11-15T12:50:03;40.4;;;25.5;;
56271;SDS011;42177;48.914;18.160;2022-11-15T12:55:28;40.4;;;25.5;;
56271;SDS011;42177;48.914;18.160;2022-11-15T13:00:19;30.6;;;21.8;;
56271;SDS011;42177;48.914;18.160;2022-11-15T13:06:09;30.6;;;21.8;;
56271;SDS011;42177;48.914;18.160;2022-11-15T13:10:28;28.5;;;20.6;;
56271;SDS011;42177;48.914;18.160;2022-11-15T13:15:09;28.5;;;20.6;;
56271;SDS011;42177;48.914;18.160;2022-11-15T13:20:21;29.9;;;20.3;;
56271;SDS011;42177;48.914;18.160;2022-11-15T13:25:03;29.9;;;20.3;;
56271;SDS011;42177;48.914;18.160;2022-11-15T13:30:03;28.8;;;20.1;;
56271;SDS011;42177;48.914;18.160;2022-11-15T13:35:06;28.8;;;20.1;;
56271;SDS011;42177;48.914;18.160;2022-11-15T13:40:17;35.2;;;21.6;;
56271;SDS011;42177;48.914;18.160;2022-11-15T13:45:04;35.2;;;21.6;;
56271;SDS011;42177;48.914;18.160;2022-11-15T13:50:03;30;;;20.4;;
56271;SDS011;42177;48.914;18.160;2022-11-15T13:55:04;30;;;20.4;;
56271;SDS011;42177;48.914;18.160;2022-11-15T14:00:04;28.6;;;20.2;;
56271;SDS011;42177;48.914;18.160;2022-11-15T14:05:05;28.6;;;20.2;;
56271;SDS011;42177;48.914;18.160;2022-11-15T14:10:16;27.5;;;19.5;;
56271;SDS011;42177;48.914;18.160;2022-11-15T14:15:18;27.5;;;19.5;;
56271;SDS011;42177;48.914;18.160;2022-11-15T14:20:19;25.3;;;17.8;;
56271;SDS011;42177;48.914;18.160;2022-11-15T14:25:05;25.3;;;17.8;;
56271;SDS011;42177;48.914;18.160;2022-11-15T14:30:04;24.3;;;18;;
56271;SDS011;42177;48.914;18.160;2022-11-15T14:35:08;24.3;;;18;;
56271;SDS011;42177;48.914;18.160;2022-11-15T14:40:04;22.4;;;16.7;;
56271;SDS011;42177;48.914;18.160;2022-11-15T14:45:04;22.4;;;16.7;;
56271;SDS011;42177;48.914;18.160;2022-11-15T14:50:03;27;;;16.5;;
56271;SDS011;42177;48.914;18.160;2022-11-15T14:55:09;27;;;16.5;;
56271;SDS011;42177;48.914;18.160;2022-11-15T15:00:04;24;;;16.9;;
56271;SDS011;42177;48.914;18.160;2022-11-15T15:05:10;24;;;16.9;;
56271;SDS011;42177;48.914;18.160;2022-11-15T15:10:03;25;;;17.7;;
56271;SDS011;42177;48.914;18.160;2022-11-15T15:15:03;25;;;17.7;;
56271;SDS011;42177;48.914;18.160;2022-11-15T15:20:03;28.3;;;19.6;;
56271;SDS011;42177;48.914;18.160;2022-11-15T15:25:08;28.3;;;19.6;;
56271;SDS011;42177;48.914;18.160;2022-11-15T15:30:03;30.4;;;19.5;;
56271;SDS011;42177;48.914;18.160;2022-11-15T15:35:03;30.4;;;19.5;;
56271;SDS011;42177;48.914;18.160;2022-11-15T15:40:08;34.2;;;21.1;;
56271;SDS011;42177;48.914;18.160;2022-11-15T15:45:04;34.2;;;21.1;;
56271;SDS011;42177;48.914;18.160;2022-11-15T15:50:04;37.2;;;22.5;;
56271;SDS011;42177;48.914;18.160;2022-11-15T15:55:03;37.2;;;22.5;;
56271;SDS011;42177;48.914;18.160;2022-11-15T16:00:04;33.1;;;21.6;;
56271;SDS011;42177;48.914;18.160;2022-11-15T16:05:04;33.1;;;21.6;;
56271;SDS011;42177;48.914;18.160;2022-11-15T16:10:12;30.2;;;20.6;;
56271;SDS011;42177;48.914;18.160;2022-11-15T16:15:03;30.2;;;20.6;;
56271;SDS011;42177;48.914;18.160;2022-11-15T16:20:03;34.2;;;21.9;;
56271;SDS011;42177;48.914;18.160;2022-11-15T16:25:04;34.2;;;21.9;;
56271;SDS011;42177;48.914;18.160;2022-11-15T16:30:03;33.6;;;22.3;;
56271;SDS011;42177;48.914;18.160;2022-11-15T16:35:03;33.6;;;22.3;;
56271;SDS011;42177;48.914;18.160;2022-11-15T16:40:03;34.2;;;23;;
56271;SDS011;42177;48.914;18.160;2022-11-15T16:45:04;34.2;;;23;;
56271;SDS011;42177;48.914;18.160;2022-11-15T16:50:03;33;;;22;;
56271;SDS011;42177;48.914;18.160;2022-11-15T16:55:03;33;;;22;;
56271;SDS011;42177;48.914;18.160;2022-11-15T17:00:03;36.3;;;22.7;;
56271;SDS011;42177;48.914;18.160;2022-11-15T17:05:04;36.3;;;22.7;;
56271;SDS011;42177;48.914;18.160;2022-11-15T17:10:03;33.2;;;22.3;;
56271;SDS011;42177;48.914;18.160;2022-11-15T17:15:03;33.2;;;22.3;;
56271;SDS011;42177;48.914;18.160;2022-11-15T17:20:04;32.7;;;21.8;;
56271;SDS011;42177;48.914;18.160;2022-11-15T17:25:04;32.7;;;21.8;;
56271;SDS011;42177;48.914;18.160;2022-11-15T17:30:04;36;;;23.3;;
56271;SDS011;42177;48.914;18.160;2022-11-15T17:35:04;36;;;23.3;;
56271;SDS011;42177;48.914;18.160;2022-11-15T17:40:04;37.4;;;24.4;;
56271;SDS011;42177;48.914;18.160;2022-11-15T17:45:04;37.4;;;24.4;;
56271;SDS011;42177;48.914;18.160;2022-11-15T17:50:03;41.2;;;24.2;;
